Time;durP1;ratioP1;P1;durP2;ratioP2;P2;SDS_P1;SDS_P2;PMS_P1;PMS_P2;Temp;Humidity;BMP_temperature;BMP_pressure;BME280_temperature;BME280_humidity;BME280_pressure;Samples;Min_cycle;Max_cycle;Signal;HPM_P1;HPM_P2
2021/05/09 00:00:19;;;;;;;6.28;1.73;;;;;;;14.56;42.64;100429.13;5061222;28;20025;-67
2021/05/09 00:02:44;;;;;;;2.95;1.88;;;;;;;14.68;42.27;100435.78;5059018;28;20286;-67
2021/05/09 00:05:11;;;;;;;4.07;1.63;;;;;;;14.53;42.01;100424.97;5060605;28;20053;-68
2021/05/09 00:07:36;;;;;;;3.22;1.88;;;;;;;14.68;41.99;100431.28;5061468;28;20057;-68
2021/05/09 00:10:05;;;;;;;7.50;2.25;;;;;;;14.63;41.65;100438.16;5060457;28;20037;-75
2021/05/09 00:12:30;;;;;;;4.05;1.80;;;;;;;14.56;42.01;100450.47;5061786;28;20032;-74
2021/05/09 00:14:56;;;;;;;5.07;1.67;;;;;;;14.58;41.85;100451.16;5060232;28;20041;-77
2021/05/09 00:17:21;;;;;;;2.53;1.95;;;;;;;14.62;41.48;100455.13;5059565;28;20095;-70
2021/05/09 00:19:47;;;;;;;2.50;1.60;;;;;;;14.58;42.10;100448.50;5060855;28;20037;-77
2021/05/09 00:22:12;;;;;;;2.60;1.50;;;;;;;14.61;41.94;100456.16;5059049;28;20191;-75
2021/05/09 00:24:38;;;;;;;3.70;1.60;;;;;;;14.49;41.82;100442.31;5060123;28;20037;-67
2021/05/09 00:27:03;;;;;;;5.75;1.60;;;;;;;14.44;42.20;100449.16;5061241;28;20302;-73
2021/05/09 00:29:29;;;;;;;5.72;1.80;;;;;;;14.51;42.42;100466.13;5060284;28;20024;-67
2021/05/09 00:31:54;;;;;;;8.43;1.95;;;;;;;14.25;42.80;100464.47;5061964;28;20048;-68
2021/05/09 00:34:20;;;;;;;4.55;1.92;;;;;;;14.12;43.17;100461.50;5060012;28;20045;-68
2021/05/09 00:36:45;;;;;;;4.53;1.80;;;;;;;14.21;42.78;100467.66;5060646;28;20088;-75
2021/05/09 00:39:10;;;;;;;3.83;1.60;;;;;;;14.20;42.96;100472.13;5060820;28;20104;-69
2021/05/09 00:41:36;;;;;;;3.83;1.75;;;;;;;14.25;42.61;100482.28;5059071;28;20088;-75
2021/05/09 00:44:01;;;;;;;4.28;2.20;;;;;;;14.20;43.19;100487.28;5059443;28;20226;-67
2021/05/09 00:46:27;;;;;;;4.82;1.80;;;;;;;14.20;42.55;100480.13;5060326;28;20036;-68
2021/05/09 00:48:54;;;;;;;6.18;2.10;;;;;;;14.06;43.08;100489.63;5062195;28;20059;-75
2021/05/09 00:51:20;;;;;;;11.52;2.42;;;;;;;14.16;42.71;100496.63;5061376;28;20028;-75
2021/05/09 00:53:47;;;;;;;4.80;2.17;;;;;;;14.00;43.49;100489.44;5054462;28;20032;-67
2021/05/09 00:56:16;;;;;;;5.28;2.55;;;;;;;13.94;43.60;100493.63;5062671;28;20053;-68
2021/05/09 00:58:43;;;;;;;5.40;2.40;;;;;;;13.83;43.85;100495.75;5062071;28;20021;-67
2021/05/09 01:01:11;;;;;;;6.72;2.55;;;;;;;13.84;43.28;100487.63;5059193;28;20398;-68
2021/05/09 01:03:38;;;;;;;4.65;3.00;;;;;;;13.77;43.37;100485.78;5058676;28;20104;-67
2021/05/09 01:06:06;;;;;;;9.80;2.67;;;;;;;13.78;43.69;100493.59;5058521;28;20045;-67
2021/05/09 01:08:33;;;;;;;4.45;3.22;;;;;;;13.82;43.65;100496.75;5059094;28;20059;-67
2021/05/09 01:10:59;;;;;;;6.30;3.30;;;;;;;13.83;43.58;100487.78;5060001;28;20352;-67
2021/05/09 01:13:24;;;;;;;5.90;3.10;;;;;;;13.87;43.70;100502.44;5059438;28;20071;-67
2021/05/09 01:15:50;;;;;;;4.60;2.50;;;;;;;13.58;43.27;100476.25;5059941;28;20041;-71
2021/05/09 01:18:16;;;;;;;4.38;2.60;;;;;;;13.51;43.83;100494.69;5062653;28;20234;-75
2021/05/09 01:20:41;;;;;;;5.38;2.17;;;;;;;13.64;43.76;100504.88;5062232;28;20374;-74
2021/05/09 01:23:07;;;;;;;4.05;2.15;;;;;;;13.69;43.94;100511.38;5077753;28;20308;-67
2021/05/09 01:25:33;;;;;;;4.28;2.40;;;;;;;13.74;43.32;100511.72;5055864;28;20357;-67
2021/05/09 01:27:58;;;;;;;5.43;2.13;;;;;;;13.60;44.36;100509.69;5042568;28;20099;-67
2021/05/09 01:30:25;;;;;;;5.30;2.50;;;;;;;13.57;43.76;100496.72;5045299;28;20044;-75
2021/05/09 01:32:51;;;;;;;8.93;2.55;;;;;;;13.47;44.63;100501.31;5059042;28;20044;-73
2021/05/09 01:35:17;;;;;;;4.97;2.22;;;;;;;13.56;44.41;100510.19;5058414;28;20100;-75
2021/05/09 01:37:43;;;;;;;5.35;2.38;;;;;;;13.61;43.93;100507.88;5060586;28;20090;-67
2021/05/09 01:40:11;;;;;;;5.65;2.33;;;;;;;13.53;44.16;100502.53;5060135;28;20032;-75
2021/05/09 01:42:37;;;;;;;6.85;2.28;;;;;;;13.52;44.46;100503.50;5061247;28;20041;-75
2021/05/09 01:45:03;;;;;;;5.28;1.98;;;;;;;13.47;44.51;100509.31;5057649;28;20059;-67
2021/05/09 01:47:30;;;;;;;3.47;2.20;;;;;;;13.41;43.83;100513.44;5058594;28;20029;-75
2021/05/09 01:49:55;;;;;;;4.95;2.20;;;;;;;13.32;44.28;100509.09;5058257;28;20104;-75
2021/05/09 01:52:21;;;;;;;4.80;2.10;;;;;;;13.28;44.45;100507.75;5059315;28;20086;-75
2021/05/09 01:54:47;;;;;;;5.25;2.22;;;;;;;13.32;44.44;100521.56;5057833;28;20331;-68
2021/05/09 01:57:13;;;;;;;8.05;3.30;;;;;;;13.39;43.79;100525.25;5059474;28;20024;-75
2021/05/09 01:59:39;;;;;;;3.70;2.40;;;;;;;13.37;44.16;100524.56;5060245;28;20052;-67
2021/05/09 02:02:04;;;;;;;6.38;2.58;;;;;;;13.37;44.13;100529.88;5057556;28;20267;-75
2021/05/09 02:07:52;;;;;;;4.95;2.30;;;;;;;13.24;44.62;100526.84;5060505;28;20052;-67
2021/05/09 02:10:17;;;;;;;4.82;2.33;;;;;;;13.14;44.81;100542.91;5060211;28;20033;-68
2021/05/09 02:12:43;;;;;;;2.92;2.13;;;;;;;13.22;44.64;100542.97;5057222;28;20051;-67
2021/05/09 02:15:09;;;;;;;7.03;2.33;;;;;;;13.27;43.76;100543.31;5057225;28;20032;-74
2021/05/09 02:17:35;;;;;;;4.45;2.30;;;;;;;13.19;43.98;100540.63;5060262;28;20326;-68
2021/05/09 02:20:04;;;;;;;7.43;2.25;;;;;;;13.21;44.20;100548.44;5057132;28;20070;-74
2021/05/09 02:22:30;;;;;;;3.92;2.10;;;;;;;13.15;43.63;100544.56;5054870;28;20028;-75
2021/05/09 02:24:55;;;;;;;4.53;2.20;;;;;;;13.13;43.52;100546.53;5059092;28;20025;-74
2021/05/09 02:27:20;;;;;;;3.03;2.08;;;;;;;13.18;43.46;100552.25;5061244;28;20037;-67
2021/05/09 02:29:46;;;;;;;5.90;2.65;;;;;;;13.19;43.08;100551.25;5059441;28;20395;-68
2021/05/09 02:32:11;;;;;;;4.97;2.70;;;;;;;13.19;43.04;100559.25;5058039;28;20040;-68
2021/05/09 02:34:37;;;;;;;5.03;1.98;;;;;;;13.17;42.19;100541.78;5058640;28;20092;-75
2021/05/09 02:37:03;;;;;;;5.15;2.22;;;;;;;13.21;42.88;100551.94;5056210;28;20021;-67
2021/05/09 02:39:29;;;;;;;2.92;2.00;;;;;;;13.22;43.11;100545.63;5057100;28;20037;-75
2021/05/09 02:41:54;;;;;;;2.88;2.10;;;;;;;13.19;43.11;100548.59;5058165;28;20029;-75
2021/05/09 02:44:20;;;;;;;6.82;2.20;;;;;;;13.25;42.85;100552.44;5058634;28;20040;-68
2021/05/09 02:46:45;;;;;;;4.28;2.20;;;;;;;13.20;43.48;100557.41;5057864;28;20033;-75
2021/05/09 02:49:11;;;;;;;5.45;2.67;;;;;;;13.11;43.96;100562.66;5057866;28;20227;-68
2021/05/09 02:51:36;;;;;;;4.65;3.00;;;;;;;13.12;43.86;100568.81;5058822;28;20041;-67
2021/05/09 02:54:03;;;;;;;5.20;2.35;;;;;;;13.12;44.07;100568.81;5058556;28;20033;-75
2021/05/09 02:56:29;;;;;;;3.72;2.20;;;;;;;13.15;43.86;100588.94;5056430;28;20048;-74
2021/05/09 02:58:54;;;;;;;4.00;2.45;;;;;;;13.16;44.16;100583.47;5060258;28;20234;-75
2021/05/09 03:01:20;;;;;;;3.55;2.22;;;;;;;12.98;44.35;100582.69;5060290;28;20043;-67
2021/05/09 03:03:45;;;;;;;8.77;2.40;;;;;;;12.95;44.62;100597.13;5059041;28;20192;-67
2021/05/09 03:06:11;;;;;;;5.32;2.33;;;;;;;13.04;44.71;100600.66;5064519;28;20330;-74
2021/05/09 03:08:36;;;;;;;4.28;2.28;;;;;;;12.91;44.97;100603.75;5063520;28;20269;-69
2021/05/09 03:11:02;;;;;;;7.38;2.25;;;;;;;12.89;44.20;100607.56;5061868;28;20044;-69
2021/05/09 03:13:27;;;;;;;5.00;2.40;;;;;;;12.79;44.37;100607.66;5061406;28;20078;-69
2021/05/09 03:15:53;;;;;;;4.85;2.38;;;;;;;12.93;44.20;100615.06;5063746;28;20082;-75
2021/05/09 03:18:20;;;;;;;3.28;2.30;;;;;;;13.02;44.44;100624.75;5062006;28;20295;-67
2021/05/09 03:20:45;;;;;;;3.45;1.98;;;;;;;13.03;44.43;100636.22;5062679;28;20021;-75
2021/05/09 03:23:11;;;;;;;4.38;2.28;;;;;;;13.05;44.64;100632.41;5063801;28;20043;-75
2021/05/09 03:25:36;;;;;;;5.38;2.50;;;;;;;12.90;44.71;100633.16;5061691;28;20029;-75
2021/05/09 03:28:02;;;;;;;4.07;2.00;;;;;;;12.88;44.31;100637.78;5061595;28;20037;-75
2021/05/09 03:30:27;;;;;;;6.00;2.60;;;;;;;12.93;43.88;100646.13;5058913;28;20051;-67
2021/05/09 03:32:55;;;;;;;5.85;2.38;;;;;;;13.07;44.19;100646.41;5062903;28;20037;-68
2021/05/09 03:35:22;;;;;;;4.15;2.03;;;;;;;12.93;44.21;100646.97;5061337;28;20025;-73
2021/05/09 03:37:47;;;;;;;4.47;2.58;;;;;;;13.09;43.65;100663.03;5060602;28;20029;-67
2021/05/09 03:40:13;;;;;;;3.88;2.20;;;;;;;13.03;43.88;100653.00;5060757;28;20100;-68
2021/05/09 03:42:39;;;;;;;5.03;2.35;;;;;;;12.87;44.79;100662.69;5061835;28;20140;-75
2021/05/09 03:45:05;;;;;;;8.73;2.80;;;;;;;12.96;44.52;100673.22;5063445;28;20354;-75
2021/05/09 03:47:30;;;;;;;9.07;2.60;;;;;;;13.04;44.15;100667.13;5061969;28;20307;-67
2021/05/09 03:49:57;;;;;;;6.13;2.67;;;;;;;13.31;44.73;100679.47;5060733;28;20048;-68
2021/05/09 03:52:23;;;;;;;12.13;2.92;;;;;;;12.93;47.61;100693.97;5060955;28;20033;-76
2021/05/09 03:54:49;;;;;;;9.27;2.65;;;;;;;12.10;50.99;100693.31;5063653;28;20044;-76
2021/05/09 03:57:14;;;;;;;8.07;2.90;;;;;;;11.48;52.02;100689.53;5062148;28;20032;-75
2021/05/09 03:59:40;;;;;;;7.88;2.97;;;;;;;11.09;54.33;100707.31;5060020;28;20032;-76
2021/05/09 04:02:06;;;;;;;4.63;2.92;;;;;;;10.46;56.24;100712.19;5060706;28;20033;-75
2021/05/09 04:04:32;;;;;;;10.23;3.22;;;;;;;10.32;56.73;100709.91;5059565;28;20281;-76
2021/05/09 04:06:57;;;;;;;6.25;2.97;;;;;;;10.50;56.15;100724.19;5061181;28;20033;-76
2021/05/09 04:09:23;;;;;;;5.18;2.95;;;;;;;10.71;55.99;100711.66;5077104;28;20353;-76
2021/05/09 04:11:48;;;;;;;6.28;2.58;;;;;;;10.89;55.68;100735.63;5060094;28;20083;-76
2021/05/09 04:14:13;;;;;;;5.45;2.55;;;;;;;10.73;57.22;100735.34;5061933;28;20044;-76
2021/05/09 04:16:39;;;;;;;5.07;2.78;;;;;;;10.73;57.57;100738.84;5058906;28;20080;-69
2021/05/09 04:19:04;;;;;;;4.30;2.97;;;;;;;10.85;57.14;100748.34;5060572;28;20053;-69
2021/05/09 04:21:30;;;;;;;3.97;3.03;;;;;;;11.02;57.18;100745.97;5059645;28;20047;-77
2021/05/09 04:23:55;;;;;;;5.03;2.90;;;;;;;11.11;56.12;100748.59;5057882;28;20071;-69
2021/05/09 04:26:21;;;;;;;6.07;3.40;;;;;;;11.06;57.33;100732.28;5063035;28;20029;-76
2021/05/09 04:28:46;;;;;;;4.60;3.10;;;;;;;11.02;58.20;100732.69;5062626;28;20032;-76
2021/05/09 04:31:12;;;;;;;4.00;2.97;;;;;;;11.19;56.99;100761.16;5056924;28;20028;-68
2021/05/09 04:33:37;;;;;;;5.00;2.72;;;;;;;11.37;57.08;100753.31;5059694;28;20025;-69
2021/05/09 04:36:03;;;;;;;5.75;2.60;;;;;;;11.62;56.00;100773.09;5059525;28;20105;-69
2021/05/09 04:38:29;;;;;;;4.32;3.10;;;;;;;11.94;55.74;100767.44;5060116;28;20040;-69
2021/05/09 04:40:54;;;;;;;7.45;3.13;;;;;;;12.17;54.13;100775.88;5059527;28;20127;-77
2021/05/09 04:43:21;;;;;;;5.50;3.38;;;;;;;12.51;53.82;100771.66;5058698;28;20214;-69
2021/05/09 04:45:48;;;;;;;3.92;2.83;;;;;;;12.73;51.86;100773.03;5056869;28;20037;-69
2021/05/09 04:48:14;;;;;;;5.05;2.83;;;;;;;13.02;51.24;100783.44;5061528;28;20017;-75
2021/05/09 04:50:39;;;;;;;4.78;3.40;;;;;;;13.30;49.01;100781.56;5060286;28;20330;-75
2021/05/09 04:53:21;;;;;;;4.13;2.75;;;;;;;13.72;47.22;100781.72;5059980;28;20344;-68
2021/05/09 04:55:47;;;;;;;7.03;2.80;;;;;;;14.17;45.45;100776.13;5057647;28;20096;-77
2021/05/09 04:58:12;;;;;;;4.85;2.80;;;;;;;14.38;45.76;100779.19;5060886;28;20096;-75
2021/05/09 05:00:38;;;;;;;5.07;2.97;;;;;;;14.31;46.28;100780.00;5059467;28;20036;-68
2021/05/09 05:03:03;;;;;;;3.50;2.75;;;;;;;14.55;45.65;100768.63;5059860;28;20035;-75
2021/05/09 05:05:28;;;;;;;5.15;2.67;;;;;;;15.31;43.61;100776.38;5058504;28;20029;-70
2021/05/09 05:07:54;;;;;;;4.60;2.55;;;;;;;15.83;42.28;100792.88;5058139;28;20051;-69
2021/05/09 05:10:19;;;;;;;7.43;2.50;;;;;;;16.28;38.66;100794.91;5059793;28;20306;-70
2021/05/09 05:12:45;;;;;;;4.30;2.65;;;;;;;16.45;38.46;100808.19;5059517;28;20036;-70
2021/05/09 05:15:11;;;;;;;6.78;2.50;;;;;;;16.31;41.25;100817.78;5060528;28;20386;-69
2021/05/09 05:17:36;;;;;;;6.50;2.60;;;;;;;15.41;41.86;100827.75;5058754;28;20535;-67
2021/05/09 05:20:02;;;;;;;11.10;2.45;;;;;;;15.33;42.67;100817.91;5062346;28;20059;-77
2021/05/09 05:22:27;;;;;;;6.90;2.60;;;;;;;15.71;41.02;100822.78;5060942;28;20090;-77
2021/05/09 05:24:52;;;;;;;3.08;2.60;;;;;;;16.15;39.87;100823.19;5062210;28;20039;-69
2021/05/09 05:27:18;;;;;;;7.45;2.22;;;;;;;16.34;39.46;100825.47;5061990;28;20055;-76
2021/05/09 05:29:43;;;;;;;8.15;2.90;;;;;;;15.91;40.52;100816.06;5048049;28;20028;-77
2021/05/09 05:32:09;;;;;;;8.02;3.03;;;;;;;15.74;41.16;100811.78;5060160;28;20096;-77
2021/05/09 05:34:34;;;;;;;3.75;2.67;;;;;;;15.92;41.78;100831.94;5061431;28;20029;-77
2021/05/09 05:36:59;;;;;;;7.30;2.85;;;;;;;16.05;39.89;100834.06;5059500;28;20033;-77
2021/05/09 05:39:25;;;;;;;4.95;2.58;;;;;;;16.20;40.71;100840.38;5059831;28;20074;-77
2021/05/09 05:41:50;;;;;;;3.88;2.50;;;;;;;16.56;36.88;100829.19;5058145;28;20139;-70
2021/05/09 05:44:16;;;;;;;4.28;2.30;;;;;;;16.91;36.78;100830.56;5058339;28;20037;-70
2021/05/09 05:46:41;;;;;;;6.05;2.22;;;;;;;16.99;36.51;100843.06;5060363;28;20031;-69
2021/05/09 05:49:07;;;;;;;4.40;2.63;;;;;;;17.26;36.40;100849.75;5059205;28;20043;-70
2021/05/09 05:51:32;;;;;;;4.70;2.10;;;;;;;17.54;34.70;100843.66;5061513;28;20028;-70
2021/05/09 05:54:00;;;;;;;3.45;2.60;;;;;;;18.02;33.45;100848.78;5060772;28;20056;-70
2021/05/09 05:56:26;;;;;;;2.60;1.85;;;;;;;18.72;32.43;100842.94;5059157;28;20279;-75
2021/05/09 05:58:52;;;;;;;3.28;2.03;;;;;;;19.03;32.17;100845.41;5059190;28;20055;-74
2021/05/09 06:01:18;;;;;;;3.53;2.42;;;;;;;19.12;31.99;100857.66;5059425;28;20321;-68
2021/05/09 06:03:44;;;;;;;4.57;2.33;;;;;;;19.39;30.17;100856.06;5057894;28;20127;-75
2021/05/09 06:06:09;;;;;;;4.88;2.10;;;;;;;19.85;29.15;100858.38;5056160;28;20055;-75
2021/05/09 06:08:35;;;;;;;5.65;1.83;;;;;;;20.52;28.31;100852.41;5058263;28;20200;-75
2021/05/09 06:11:02;;;;;;;4.85;2.20;;;;;;;20.50;28.44;100859.84;5058081;28;20045;-68
2021/05/09 06:13:28;;;;;;;3.00;1.92;;;;;;;20.72;27.87;100856.84;5058741;28;20047;-75
2021/05/09 06:15:53;;;;;;;6.88;2.97;;;;;;;20.65;30.37;100872.13;5058415;28;20041;-75
2021/05/09 06:18:19;;;;;;;6.75;3.33;;;;;;;20.08;30.90;100857.09;5057403;28;20075;-75
2021/05/09 06:20:45;;;;;;;8.90;3.28;;;;;;;20.24;30.49;100868.56;5059397;28;20029;-75
2021/05/09 06:23:10;;;;;;;4.93;3.00;;;;;;;20.23;30.13;100861.53;5058893;28;20317;-75
2021/05/09 06:25:37;;;;;;;9.40;3.13;;;;;;;20.29;30.29;100863.44;5061472;28;20064;-67
2021/05/09 06:28:04;;;;;;;8.52;2.92;;;;;;;20.21;30.23;100864.41;5060878;28;20064;-75
2021/05/09 06:30:30;;;;;;;9.52;3.30;;;;;;;20.53;29.17;100862.97;5060031;28;20044;-68
2021/05/09 06:32:55;;;;;;;7.45;2.83;;;;;;;20.63;28.83;100876.88;5057254;28;20045;-68
2021/05/09 06:35:21;;;;;;;5.63;3.10;;;;;;;20.64;29.61;100877.72;5060260;28;20041;-75
2021/05/09 06:37:50;;;;;;;5.72;2.75;;;;;;;20.22;29.57;100865.25;5060718;28;20033;-75
2021/05/09 06:40:17;;;;;;;7.80;3.15;;;;;;;20.15;29.24;100873.28;5061385;28;20048;-75
2021/05/09 06:42:42;;;;;;;6.30;2.58;;;;;;;20.75;28.42;100882.53;5062241;28;20390;-68
2021/05/09 06:45:12;;;;;;;7.28;2.80;;;;;;;20.54;28.06;100882.63;5059598;28;20029;-68
2021/05/09 06:47:38;;;;;;;7.88;2.58;;;;;;;20.80;27.89;100892.69;5062101;28;20025;-75
2021/05/09 06:50:03;;;;;;;3.72;2.60;;;;;;;21.14;27.60;100881.03;5062480;28;20027;-75
2021/05/09 06:52:29;;;;;;;8.10;2.70;;;;;;;21.53;27.13;100880.28;5062301;28;20056;-69
2021/05/09 06:54:54;;;;;;;6.80;2.10;;;;;;;21.63;26.98;100883.41;5061292;28;20369;-77
2021/05/09 06:57:20;;;;;;;7.43;2.53;;;;;;;21.94;27.53;100885.50;5062533;28;20027;-77
2021/05/09 06:59:45;;;;;;;6.47;2.60;;;;;;;21.07;27.27;100888.25;5061862;28;20123;-70
2021/05/09 07:02:11;;;;;;;5.00;2.03;;;;;;;21.37;27.15;100878.81;5061008;28;20308;-70
2021/05/09 07:04:36;;;;;;;10.60;2.63;;;;;;;21.89;25.81;100874.50;5060741;28;20041;-71
2021/05/09 07:07:02;;;;;;;6.85;2.20;;;;;;;22.63;24.69;100879.56;5062855;28;20130;-70
2021/05/09 07:09:27;;;;;;;6.60;2.13;;;;;;;23.24;24.09;100876.41;5061286;28;20295;-70
2021/05/09 07:11:53;;;;;;;3.30;2.15;;;;;;;23.62;24.04;100876.38;5061769;28;20033;-70
2021/05/09 07:14:19;;;;;;;3.00;2.00;;;;;;;23.47;24.53;100875.84;5061478;28;20052;-71
2021/05/09 07:16:44;;;;;;;2.60;1.90;;;;;;;22.50;24.95;100876.91;5059328;28;20021;-70
2021/05/09 07:19:10;;;;;;;5.90;1.80;;;;;;;22.62;25.21;100878.75;5064301;28;20068;-67
2021/05/09 07:21:45;;;;;;;6.35;2.40;;;;;;;21.34;25.71;100884.63;5063671;28;20040;-70
2021/05/09 07:24:11;;;;;;;3.15;1.63;;;;;;;21.50;25.63;100897.69;5061740;28;20325;-76
2021/05/09 07:26:36;;;;;;;3.58;2.30;;;;;;;21.85;25.24;100879.50;5061576;28;20021;-77
2021/05/09 07:29:02;;;;;;;3.80;2.00;;;;;;;22.54;23.88;100883.53;5059443;28;20100;-77
2021/05/09 07:31:28;;;;;;;2.83;1.73;;;;;;;22.76;23.84;100890.31;5063298;28;20085;-77
2021/05/09 07:33:53;;;;;;;4.50;1.52;;;;;;;22.67;23.66;100897.00;5059834;28;20029;-77
2021/05/09 07:36:19;;;;;;;6.05;2.00;;;;;;;22.61;24.28;100895.97;5064070;28;20032;-77
2021/05/09 07:38:44;;;;;;;2.05;1.52;;;;;;;22.53;24.58;100898.09;5063413;28;20039;-77
2021/05/09 07:41:09;;;;;;;3.15;1.50;;;;;;;22.39;23.16;100897.28;5060201;28;20094;-77
2021/05/09 07:43:35;;;;;;;1.80;1.42;;;;;;;22.23;24.79;100903.97;5062989;28;20029;-70
2021/05/09 07:46:01;;;;;;;5.25;2.13;;;;;;;21.49;25.95;100908.69;5058439;28;20033;-77
2021/05/09 07:48:26;;;;;;;3.63;1.90;;;;;;;21.62;25.29;100901.44;5060470;28;20307;-70
2021/05/09 07:50:52;;;;;;;3.40;1.67;;;;;;;22.24;25.06;100904.78;5061706;28;20070;-70
2021/05/09 07:53:18;;;;;;;8.35;2.05;;;;;;;21.73;25.91;100891.91;5062297;28;20387;-70
2021/05/09 07:55:44;;;;;;;5.32;1.80;;;;;;;21.26;25.11;100909.88;5064168;28;20020;-77
2021/05/09 07:58:14;;;;;;;1.88;1.30;;;;;;;21.56;25.59;100913.06;5079353;28;20025;-77
2021/05/09 08:00:40;;;;;;;2.78;1.67;;;;;;;21.48;24.67;100912.41;5062444;28;20025;-77
2021/05/09 08:03:05;;;;;;;2.35;1.50;;;;;;;21.05;24.86;100912.69;5062601;28;20027;-77
2021/05/09 08:05:30;;;;;;;1.88;1.63;;;;;;;21.28;25.82;100905.13;5063763;28;20033;-77
2021/05/09 08:07:57;;;;;;;4.22;1.42;;;;;;;21.57;25.16;100892.31;5063120;28;20083;-71
2021/05/09 08:10:24;;;;;;;1.98;1.33;;;;;;;21.82;24.90;100914.09;5063544;28;20338;-76
2021/05/09 08:12:50;;;;;;;5.75;1.77;;;;;;;21.50;24.21;100913.88;5064209;28;20188;-77
2021/05/09 08:15:17;;;;;;;4.25;1.48;;;;;;;21.47;22.64;100908.06;5058229;28;20037;-70
2021/05/09 08:17:44;;;;;;;1.90;1.50;;;;;;;21.06;24.36;100913.53;5064001;28;20039;-70
2021/05/09 08:20:10;;;;;;;2.15;1.40;;;;;;;21.45;24.32;100910.13;5063228;28;20323;-77
2021/05/09 08:22:35;;;;;;;2.97;1.73;;;;;;;21.27;25.25;100906.16;5063429;28;20029;-77
2021/05/09 08:25:02;;;;;;;3.42;1.48;;;;;;;20.77;25.96;100922.69;5063208;28;20267;-70
2021/05/09 08:27:34;;;;;;;4.75;1.90;;;;;;;20.67;26.85;100915.00;5058955;28;20059;-68
2021/05/09 08:30:00;;;;;;;5.47;1.52;;;;;;;20.88;25.86;100898.75;5062718;28;20041;-75
2021/05/09 08:32:27;;;;;;;6.45;1.98;;;;;;;20.79;27.82;100908.00;5063674;28;20094;-75
2021/05/09 08:34:53;;;;;;;5.97;1.70;;;;;;;20.88;26.77;100900.63;5062661;28;20138;-75
2021/05/09 08:37:18;;;;;;;7.13;1.63;;;;;;;20.79;27.45;100913.41;5062950;28;20041;-75
2021/05/09 08:39:43;;;;;;;3.38;1.52;;;;;;;20.37;27.67;100909.00;5063085;28;20033;-75
2021/05/09 08:42:14;;;;;;;3.00;1.50;;;;;;;20.48;27.86;100905.78;5062352;28;20079;-75
2021/05/09 08:44:39;;;;;;;3.92;1.52;;;;;;;20.77;27.69;100906.53;5062435;28;20057;-77
2021/05/09 08:47:05;;;;;;;6.30;1.30;;;;;;;20.79;28.56;100901.78;5062360;28;20337;-78
2021/05/09 08:49:39;;;;;;;2.25;1.27;;;;;;;20.99;27.77;100902.72;5062583;28;20037;-70
2021/05/09 08:52:05;;;;;;;7.88;1.30;;;;;;;20.08;29.69;100901.97;5062832;28;20040;-75
2021/05/09 08:54:30;;;;;;;7.15;1.52;;;;;;;19.86;30.75;100900.38;5062660;28;20035;-68
2021/05/09 08:56:55;;;;;;;7.43;1.67;;;;;;;20.07;29.88;100895.78;5063014;28;20192;-68
2021/05/09 08:59:21;;;;;;;2.47;1.27;;;;;;;20.42;29.32;100882.38;5062412;28;20036;-74
2021/05/09 09:01:46;;;;;;;4.82;1.60;;;;;;;20.51;30.37;100888.41;5063490;28;20048;-68
2021/05/09 09:04:13;;;;;;;8.10;1.30;;;;;;;20.34;31.50;100893.25;5062197;28;20040;-75
2021/05/09 09:06:41;;;;;;;4.05;1.30;;;;;;;20.13;32.14;100880.72;5062690;28;20052;-69
2021/05/09 09:09:17;;;;;;;2.83;1.20;;;;;;;20.15;32.61;100883.19;5061937;28;20043;-75
2021/05/09 09:11:49;;;;;;;2.60;1.23;;;;;;;19.91;30.42;100881.78;5061608;28;20025;-68
2021/05/09 09:14:14;;;;;;;2.90;1.30;;;;;;;20.02;32.36;100892.00;5062141;28;20047;-68
2021/05/09 09:16:40;;;;;;;2.22;1.40;;;;;;;20.29;31.12;100844.59;5061387;28;20021;-68
2021/05/09 09:19:13;;;;;;;5.28;1.33;;;;;;;20.52;32.60;100884.69;5061937;28;20094;-75
2021/05/09 09:21:39;;;;;;;4.50;1.30;;;;;;;20.24;32.90;100876.63;5062606;28;20104;-74
2021/05/09 09:24:13;;;;;;;2.85;1.20;;;;;;;20.49;32.30;100877.03;5061583;28;20044;-75
2021/05/09 09:26:42;;;;;;;3.80;1.33;;;;;;;20.26;31.14;100883.47;5068396;28;20052;-75
2021/05/09 09:29:20;;;;;;;2.60;1.27;;;;;;;19.39;32.44;100854.22;5061164;28;20036;-68
2021/05/09 09:31:47;;;;;;;2.05;1.40;;;;;;;19.52;31.69;100877.72;5061375;28;20029;-75
2021/05/09 09:34:13;;;;;;;2.47;1.23;;;;;;;19.61;34.47;100879.25;5076266;28;20078;-68
2021/05/09 09:36:39;;;;;;;2.47;1.40;;;;;;;19.66;32.70;100865.22;5061353;28;20025;-75
2021/05/09 09:39:06;;;;;;;3.75;1.80;;;;;;;19.35;33.47;100868.22;5076301;28;20044;-68
2021/05/09 09:41:32;;;;;;;4.40;1.52;;;;;;;19.26;35.27;100896.22;5061420;28;20222;-75
2021/05/09 09:44:03;;;;;;;1.92;1.38;;;;;;;19.18;34.09;100875.69;5060951;28;20036;-68
2021/05/09 09:46:37;;;;;;;6.05;1.40;;;;;;;19.14;33.47;100888.69;5060945;28;20029;-68
2021/05/09 09:49:17;;;;;;;5.88;1.40;;;;;;;19.12;35.57;100863.88;5060876;28;20060;-68
2021/05/09 09:51:57;;;;;;;2.35;1.60;;;;;;;19.24;36.18;100868.75;5060940;28;20036;-75
2021/05/09 09:54:36;;;;;;;1.83;1.40;;;;;;;19.24;34.92;100860.69;5060294;28;20030;-67
2021/05/09 09:57:09;;;;;;;3.22;1.73;;;;;;;19.43;35.57;100865.41;5061323;28;20100;-75
2021/05/09 09:59:35;;;;;;;3.90;1.63;;;;;;;19.37;35.22;100868.88;5075802;28;20025;-76
2021/05/09 10:02:06;;;;;;;3.90;1.45;;;;;;;19.11;36.28;100872.94;5061181;28;20028;-76
2021/05/09 10:04:32;;;;;;;3.75;2.20;;;;;;;19.26;36.13;100872.91;5060696;28;20060;-75
2021/05/09 10:07:04;;;;;;;2.97;1.23;;;;;;;19.32;34.47;100849.81;5060842;28;20088;-69
2021/05/09 10:09:29;;;;;;;6.97;1.67;;;;;;;19.39;34.63;100851.53;5060697;28;20025;-68
2021/05/09 10:11:54;;;;;;;7.28;1.20;;;;;;;19.27;36.53;100855.75;5061021;28;20218;-75
2021/05/09 10:14:20;;;;;;;3.53;1.33;;;;;;;19.10;34.75;100854.34;5079127;28;20041;-75
2021/05/09 10:16:49;;;;;;;4.45;1.33;;;;;;;19.38;36.15;100862.47;5065823;28;20032;-75
2021/05/09 10:19:16;;;;;;;3.78;1.63;;;;;;;19.03;35.49;100848.06;5056522;28;20054;-68
2021/05/09 10:21:43;;;;;;;5.07;1.40;;;;;;;19.11;37.14;100862.22;5066005;28;20037;-75
2021/05/09 10:24:17;;;;;;;5.18;1.38;;;;;;;19.44;35.47;100857.16;5065079;28;20033;-74
2021/05/09 10:26:55;;;;;;;3.28;1.23;;;;;;;19.25;35.13;100855.13;5066101;28;20032;-75
2021/05/09 10:29:37;;;;;;;3.25;1.40;;;;;;;19.09;34.18;100852.69;5065186;28;20043;-75
2021/05/09 10:32:29;;;;;;;3.00;1.60;;;;;;;19.01;36.48;100856.31;5065833;28;20253;-68
2021/05/09 10:34:58;;;;;;;5.60;1.33;;;;;;;19.25;36.70;100847.06;5061597;28;20044;-68
2021/05/09 10:37:36;;;;;;;5.50;1.27;;;;;;;19.52;34.98;100858.91;5065377;28;20052;-68
2021/05/09 10:40:26;;;;;;;15.88;1.40;;;;;;;19.37;37.54;100840.16;5064661;28;20033;-75
2021/05/09 10:43:03;;;;;;;5.03;1.67;;;;;;;19.46;34.72;100859.66;5058470;28;20049;-69
2021/05/09 10:45:29;;;;;;;5.40;1.30;;;;;;;19.47;34.68;100845.19;5065208;28;20067;-75
2021/05/09 10:48:13;;;;;;;7.95;1.40;;;;;;;19.47;34.53;100839.81;5065516;28;20259;-75
2021/05/09 10:50:39;;;;;;;5.38;1.50;;;;;;;19.50;34.01;100854.72;5063443;28;20029;-67
2021/05/09 10:53:04;;;;;;;7.30;1.50;;;;;;;19.52;35.29;100853.53;5064996;28;20291;-75
2021/05/09 10:55:36;;;;;;;4.10;1.27;;;;;;;19.60;35.30;100844.50;5065161;28;20043;-75
2021/05/09 10:58:02;;;;;;;9.63;1.95;;;;;;;19.72;35.68;100838.41;5065228;28;20253;-67
2021/05/09 11:00:28;;;;;;;2.30;1.13;;;;;;;19.86;32.58;100846.59;5065086;28;20339;-75
2021/05/09 11:02:53;;;;;;;2.10;1.38;;;;;;;19.70;32.53;100840.47;5065374;28;20044;-75
2021/05/09 11:05:20;;;;;;;4.00;1.10;;;;;;;19.73;34.09;100825.81;5064538;28;20303;-75
2021/05/09 11:07:46;;;;;;;7.60;1.67;;;;;;;19.73;35.87;100837.38;5064772;28;20060;-67
2021/05/09 11:10:36;;;;;;;95.97;5.97;;;;;;;19.56;37.67;100835.19;5064640;28;20047;-74
2021/05/09 11:13:09;;;;;;;1.98;1.10;;;;;;;19.91;35.55;100826.19;5063672;28;20060;-75
2021/05/09 11:15:35;;;;;;;4.22;1.20;;;;;;;19.81;35.88;100803.38;5064180;28;20094;-75
2021/05/09 11:18:11;;;;;;;2.22;1.40;;;;;;;19.61;33.87;100812.09;5064773;28;20024;-75
2021/05/09 11:20:48;;;;;;;3.65;1.70;;;;;;;19.50;35.73;100822.50;5064574;28;20184;-75
2021/05/09 11:23:14;;;;;;;2.97;1.63;;;;;;;19.77;34.22;100801.06;5063070;28;20095;-75
2021/05/09 11:25:39;;;;;;;4.57;1.33;;;;;;;19.74;34.24;100811.34;5066191;28;20033;-75